SAS1673 EKCH-EDDB
Flight info
| Callsign | SAS1673 |
|---|---|
| Flight time | 0h 44m |
| Altitude | 35000 |
| Route | SALLO M44 KOGIM M725 RODEP T280 KETAP KETAP1R |
| Aircraft | A319/M-SDE3FGHIRWY/LB1 |
Departure
| Time | 2026-05-06 10:39 |
|---|---|
| Airport | Copenhagen Kastrup Airport (EKCH) |
Arrival
| Time | 2026-05-06 11:23 |
|---|---|
| Airport | Berlin Brandenburg Airport (EDDB) |
| Time | Latitude | Longitude | Altitude | Speed | Heading |
|---|---|---|---|---|---|
| 2026-05-06 10:03 | 55.62648 | 12.64552 | 24 ft | 0 kts | 282° |
| 2026-05-06 10:15 | 55.62648 | 12.64553 | 24 ft | 0 kts | 282° |
| 2026-05-06 10:29 | 55.62644 | 12.64582 | 27 ft | 4 kts | 295° |
| 2026-05-06 10:30 | 55.62629 | 12.64622 | 27 ft | 4 kts | 312° |
| 2026-05-06 10:30 | 55.62615 | 12.64652 | 26 ft | 4 kts | 246° |
| 2026-05-06 10:30 | 55.62608 | 12.64653 | 25 ft | 0 kts | 184° |
| 2026-05-06 10:32 | 55.62602 | 12.64653 | 28 ft | 2 kts | 184° |
| 2026-05-06 10:32 | 55.62575 | 12.64652 | 24 ft | 5 kts | 180° |
| 2026-05-06 10:33 | 55.62527 | 12.64653 | 24 ft | 8 kts | 178° |
| 2026-05-06 10:33 | 55.62461 | 12.64666 | 25 ft | 11 kts | 172° |
| 2026-05-06 10:33 | 55.62376 | 12.64674 | 24 ft | 14 kts | 179° |
| 2026-05-06 10:33 | 55.62299 | 12.64768 | 24 ft | 15 kts | 131° |
| 2026-05-06 10:34 | 55.62200 | 12.64758 | 27 ft | 15 kts | 213° |
| 2026-05-06 10:34 | 55.62114 | 12.64658 | 25 ft | 15 kts | 213° |
| 2026-05-06 10:34 | 55.62026 | 12.64555 | 24 ft | 15 kts | 213° |
| 2026-05-06 10:34 | 55.61929 | 12.64501 | 24 ft | 15 kts | 181° |
| 2026-05-06 10:35 | 55.61806 | 12.64539 | 26 ft | 20 kts | 170° |
| 2026-05-06 10:35 | 55.61670 | 12.64553 | 24 ft | 20 kts | 202° |
| 2026-05-06 10:35 | 55.61545 | 12.64415 | 26 ft | 23 kts | 213° |
| 2026-05-06 10:35 | 55.61403 | 12.64251 | 24 ft | 26 kts | 213° |
| 2026-05-06 10:36 | 55.61254 | 12.64080 | 25 ft | 23 kts | 214° |
| 2026-05-06 10:36 | 55.61111 | 12.63917 | 25 ft | 26 kts | 213° |
| 2026-05-06 10:36 | 55.60957 | 12.63740 | 26 ft | 26 kts | 212° |
| 2026-05-06 10:36 | 55.60809 | 12.63569 | 24 ft | 17 kts | 212° |
| 2026-05-06 10:37 | 55.60712 | 12.63457 | 26 ft | 18 kts | 213° |
| 2026-05-06 10:37 | 55.60603 | 12.63308 | 24 ft | 21 kts | 221° |
| 2026-05-06 10:37 | 55.60505 | 12.63210 | 24 ft | 13 kts | 169° |
| 2026-05-06 10:37 | 55.60440 | 12.63327 | 24 ft | 14 kts | 131° |
| 2026-05-06 10:38 | 55.60402 | 12.63433 | 25 ft | 9 kts | 85° |
| 2026-05-06 10:38 | 55.60455 | 12.63525 | 24 ft | 14 kts | 41° |
| 2026-05-06 10:38 | 55.60677 | 12.63868 | 27 ft | 75 kts | 41° |
| 2026-05-06 10:38 | 55.61219 | 12.64707 | 25 ft | 134 kts | 41° |
| 2026-05-06 10:39 | 55.61995 | 12.65901 | 491 ft | 148 kts | 41° |
| 2026-05-06 10:39 | 55.62763 | 12.67097 | 1293 ft | 151 kts | 40° |
| 2026-05-06 10:39 | 55.63568 | 12.68356 | 2042 ft | 159 kts | 40° |
| 2026-05-06 10:39 | 55.64241 | 12.70073 | 2453 ft | 187 kts | 72° |
| 2026-05-06 10:40 | 55.64158 | 12.72539 | 2898 ft | 220 kts | 110° |
| 2026-05-06 10:40 | 55.63169 | 12.74809 | 3533 ft | 250 kts | 141° |
| 2026-05-06 10:40 | 55.61519 | 12.76069 | 4407 ft | 268 kts | 168° |
| 2026-05-06 10:40 | 55.59663 | 12.76721 | 5558 ft | 273 kts | 170° |
| 2026-05-06 10:41 | 55.57788 | 12.77378 | 6725 ft | 276 kts | 171° |
| 2026-05-06 10:41 | 55.55891 | 12.78045 | 7819 ft | 280 kts | 171° |
| 2026-05-06 10:41 | 55.53995 | 12.78712 | 8897 ft | 283 kts | 172° |
| 2026-05-06 10:41 | 55.52052 | 12.79397 | 9935 ft | 287 kts | 172° |
| 2026-05-06 10:42 | 55.50035 | 12.80102 | 10540 ft | 307 kts | 172° |
| 2026-05-06 10:42 | 55.47861 | 12.80859 | 10909 ft | 330 kts | 172° |
| 2026-05-06 10:42 | 55.45540 | 12.81674 | 11367 ft | 348 kts | 172° |
| 2026-05-06 10:42 | 55.43142 | 12.82525 | 12122 ft | 354 kts | 172° |
| 2026-05-06 10:43 | 55.40709 | 12.83388 | 12949 ft | 359 kts | 172° |
| 2026-05-06 10:43 | 55.38247 | 12.84262 | 13795 ft | 363 kts | 172° |
| 2026-05-06 10:43 | 55.35760 | 12.85144 | 14514 ft | 367 kts | 172° |
| 2026-05-06 10:44 | 55.30709 | 12.86918 | 15960 ft | 374 kts | 172° |
| 2026-05-06 10:44 | 55.28149 | 12.87817 | 16686 ft | 377 kts | 172° |
| 2026-05-06 10:44 | 55.25559 | 12.88724 | 17419 ft | 381 kts | 172° |
| 2026-05-06 10:44 | 55.22943 | 12.89637 | 18159 ft | 385 kts | 173° |
| 2026-05-06 10:45 | 55.20309 | 12.90558 | 18807 ft | 388 kts | 173° |
| 2026-05-06 10:45 | 55.17650 | 12.91486 | 19488 ft | 390 kts | 173° |
| 2026-05-06 10:45 | 55.15011 | 12.92407 | 20170 ft | 393 kts | 173° |
| 2026-05-06 10:45 | 55.12323 | 12.93343 | 20818 ft | 395 kts | 173° |
| 2026-05-06 10:46 | 55.09621 | 12.94281 | 21445 ft | 397 kts | 173° |
| 2026-05-06 10:46 | 55.06901 | 12.95225 | 22051 ft | 400 kts | 173° |
| 2026-05-06 10:46 | 55.04157 | 12.96172 | 22631 ft | 402 kts | 173° |
| 2026-05-06 10:46 | 55.01403 | 12.97120 | 23213 ft | 405 kts | 173° |
| 2026-05-06 10:47 | 54.98629 | 12.98074 | 23722 ft | 408 kts | 173° |
| 2026-05-06 10:47 | 54.95838 | 12.99031 | 24178 ft | 410 kts | 173° |
| 2026-05-06 10:47 | 54.93022 | 12.99996 | 24616 ft | 413 kts | 173° |
| 2026-05-06 10:47 | 54.90194 | 13.00970 | 25073 ft | 416 kts | 173° |
| 2026-05-06 10:48 | 54.87341 | 13.01952 | 25532 ft | 419 kts | 173° |
| 2026-05-06 10:48 | 54.84475 | 13.02935 | 25977 ft | 422 kts | 173° |
| 2026-05-06 10:48 | 54.81580 | 13.03926 | 26419 ft | 424 kts | 172° |
| 2026-05-06 10:48 | 54.78710 | 13.04904 | 26848 ft | 427 kts | 173° |
| 2026-05-06 10:49 | 54.75747 | 13.05910 | 27274 ft | 430 kts | 173° |
| 2026-05-06 10:49 | 54.72834 | 13.06898 | 27684 ft | 433 kts | 172° |
| 2026-05-06 10:49 | 54.69873 | 13.07903 | 28089 ft | 435 kts | 172° |
| 2026-05-06 10:49 | 54.66887 | 13.08917 | 28486 ft | 438 kts | 172° |
| 2026-05-06 10:50 | 54.63887 | 13.09937 | 28877 ft | 441 kts | 172° |
| 2026-05-06 10:50 | 54.60870 | 13.10962 | 29254 ft | 443 kts | 172° |
| 2026-05-06 10:50 | 54.57834 | 13.11992 | 29638 ft | 446 kts | 172° |
| 2026-05-06 10:50 | 54.54778 | 13.13021 | 29998 ft | 448 kts | 172° |
| 2026-05-06 10:51 | 54.51720 | 13.14047 | 30419 ft | 448 kts | 172° |
| 2026-05-06 10:51 | 54.48666 | 13.15069 | 30877 ft | 447 kts | 173° |
| 2026-05-06 10:51 | 54.45653 | 13.16076 | 31334 ft | 446 kts | 173° |
| 2026-05-06 10:51 | 54.42614 | 13.17093 | 31785 ft | 445 kts | 173° |
| 2026-05-06 10:52 | 54.39581 | 13.18108 | 32260 ft | 444 kts | 173° |
| 2026-05-06 10:52 | 54.36552 | 13.19121 | 32732 ft | 443 kts | 173° |
| 2026-05-06 10:52 | 54.33530 | 13.20137 | 33212 ft | 442 kts | 173° |
| 2026-05-06 10:52 | 54.30512 | 13.21150 | 33695 ft | 441 kts | 173° |
| 2026-05-06 10:53 | 54.27494 | 13.22157 | 34127 ft | 441 kts | 173° |
| 2026-05-06 10:53 | 54.24487 | 13.23159 | 34510 ft | 441 kts | 173° |
| 2026-05-06 10:53 | 54.21478 | 13.24157 | 34803 ft | 441 kts | 173° |
| 2026-05-06 10:54 | 54.15465 | 13.26138 | 34871 ft | 438 kts | 173° |
| 2026-05-06 10:54 | 54.09480 | 13.28113 | 34865 ft | 438 kts | 173° |
| 2026-05-06 10:55 | 54.03538 | 13.30069 | 34864 ft | 438 kts | 174° |
| 2026-05-06 10:55 | 53.97556 | 13.32023 | 34861 ft | 437 kts | 174° |
| 2026-05-06 10:56 | 53.91576 | 13.33967 | 34854 ft | 438 kts | 174° |
| 2026-05-06 10:56 | 53.85596 | 13.35924 | 34838 ft | 439 kts | 174° |
| 2026-05-06 10:57 | 53.79585 | 13.37881 | 34833 ft | 439 kts | 174° |
| 2026-05-06 10:57 | 53.73586 | 13.39823 | 34169 ft | 441 kts | 174° |
| 2026-05-06 10:57 | 53.70596 | 13.40777 | 33454 ft | 442 kts | 174° |
| 2026-05-06 10:58 | 53.67569 | 13.41740 | 32423 ft | 446 kts | 174° |
| 2026-05-06 10:58 | 53.64505 | 13.42719 | 31347 ft | 450 kts | 174° |
| 2026-05-06 10:58 | 53.61411 | 13.43713 | 30310 ft | 453 kts | 174° |
| 2026-05-06 10:58 | 53.58305 | 13.44717 | 29150 ft | 455 kts | 174° |
| 2026-05-06 10:59 | 53.55184 | 13.45729 | 27870 ft | 458 kts | 174° |
| 2026-05-06 10:59 | 53.52050 | 13.46745 | 26526 ft | 460 kts | 174° |
| 2026-05-06 10:59 | 53.48897 | 13.47765 | 25373 ft | 460 kts | 174° |
| 2026-05-06 10:59 | 53.45765 | 13.48772 | 24291 ft | 457 kts | 174° |
| 2026-05-06 11:00 | 53.42665 | 13.49154 | 23806 ft | 435 kts | 187° |
| 2026-05-06 11:00 | 53.39747 | 13.48339 | 23572 ft | 420 kts | 199° |
| 2026-05-06 11:00 | 53.37089 | 13.46466 | 23326 ft | 412 kts | 211° |
| 2026-05-06 11:00 | 53.34614 | 13.44066 | 23040 ft | 410 kts | 213° |
| 2026-05-06 11:01 | 53.32167 | 13.41643 | 22770 ft | 408 kts | 213° |
| 2026-05-06 11:01 | 53.29770 | 13.39247 | 22492 ft | 406 kts | 213° |
| 2026-05-06 11:01 | 53.27354 | 13.36827 | 22224 ft | 404 kts | 213° |
| 2026-05-06 11:01 | 53.24944 | 13.34420 | 21943 ft | 403 kts | 213° |
| 2026-05-06 11:02 | 53.22540 | 13.32026 | 21678 ft | 401 kts | 213° |
| 2026-05-06 11:02 | 53.20147 | 13.29650 | 21415 ft | 400 kts | 213° |
| 2026-05-06 11:02 | 53.17763 | 13.27289 | 21150 ft | 398 kts | 213° |
| 2026-05-06 11:02 | 53.15378 | 13.24934 | 20903 ft | 397 kts | 212° |
| 2026-05-06 11:03 | 53.13003 | 13.22598 | 20646 ft | 397 kts | 212° |
| 2026-05-06 11:03 | 53.10624 | 13.20265 | 20391 ft | 396 kts | 212° |
| 2026-05-06 11:03 | 53.08253 | 13.17948 | 20142 ft | 395 kts | 212° |
| 2026-05-06 11:03 | 53.05892 | 13.15633 | 19898 ft | 393 kts | 212° |
| 2026-05-06 11:04 | 53.03534 | 13.13318 | 19647 ft | 393 kts | 212° |
| 2026-05-06 11:04 | 53.01212 | 13.11040 | 19401 ft | 392 kts | 212° |
| 2026-05-06 11:04 | 52.98869 | 13.08749 | 19144 ft | 391 kts | 212° |
| 2026-05-06 11:04 | 52.96525 | 13.06461 | 18917 ft | 390 kts | 212° |
| 2026-05-06 11:05 | 52.94181 | 13.04178 | 18672 ft | 390 kts | 212° |
| 2026-05-06 11:05 | 52.91848 | 13.01905 | 18439 ft | 389 kts | 212° |
| 2026-05-06 11:05 | 52.89511 | 12.99629 | 18202 ft | 389 kts | 212° |
| 2026-05-06 11:05 | 52.87181 | 12.97356 | 17946 ft | 388 kts | 212° |
| 2026-05-06 11:06 | 52.84856 | 12.95092 | 17674 ft | 388 kts | 212° |
| 2026-05-06 11:06 | 52.82529 | 12.92836 | 17406 ft | 387 kts | 212° |
| 2026-05-06 11:06 | 52.80207 | 12.90590 | 17114 ft | 385 kts | 212° |
| 2026-05-06 11:06 | 52.77942 | 12.88399 | 16498 ft | 380 kts | 212° |
| 2026-05-06 11:07 | 52.75682 | 12.86220 | 15894 ft | 373 kts | 212° |
| 2026-05-06 11:07 | 52.73457 | 12.84079 | 15273 ft | 367 kts | 212° |
| 2026-05-06 11:07 | 52.71268 | 12.81975 | 14657 ft | 361 kts | 212° |
| 2026-05-06 11:07 | 52.69118 | 12.79907 | 14033 ft | 355 kts | 212° |
| 2026-05-06 11:08 | 52.66998 | 12.77870 | 13370 ft | 351 kts | 211° |
| 2026-05-06 11:08 | 52.64765 | 12.76306 | 12704 ft | 349 kts | 198° |
| 2026-05-06 11:08 | 52.62373 | 12.75670 | 12016 ft | 349 kts | 184° |
| 2026-05-06 11:08 | 52.59935 | 12.76034 | 11449 ft | 361 kts | 170° |
| 2026-05-06 11:09 | 52.57523 | 12.77433 | 10945 ft | 373 kts | 156° |
| 2026-05-06 11:09 | 52.55393 | 12.79750 | 10654 ft | 360 kts | 144° |
| 2026-05-06 11:09 | 52.53451 | 12.82156 | 10533 ft | 340 kts | 145° |
| 2026-05-06 11:09 | 52.51620 | 12.84389 | 10412 ft | 324 kts | 146° |
| 2026-05-06 11:10 | 52.49844 | 12.86533 | 10286 ft | 310 kts | 146° |
| 2026-05-06 11:10 | 52.48135 | 12.88585 | 10084 ft | 301 kts | 146° |
| 2026-05-06 11:10 | 52.46463 | 12.90590 | 9897 ft | 295 kts | 147° |
| 2026-05-06 11:10 | 52.44803 | 12.92577 | 9776 ft | 294 kts | 147° |
| 2026-05-06 11:11 | 52.43155 | 12.94552 | 9651 ft | 294 kts | 147° |
| 2026-05-06 11:11 | 52.41516 | 12.96520 | 9515 ft | 287 kts | 147° |
| 2026-05-06 11:11 | 52.39936 | 12.98427 | 9383 ft | 277 kts | 146° |
| 2026-05-06 11:11 | 52.38331 | 13.00060 | 9252 ft | 265 kts | 160° |
| 2026-05-06 11:12 | 52.36609 | 13.00872 | 9119 ft | 253 kts | 175° |
| 2026-05-06 11:12 | 52.34909 | 13.00653 | 8986 ft | 243 kts | 202° |
| 2026-05-06 11:12 | 52.33519 | 12.99190 | 8848 ft | 237 kts | 230° |
| 2026-05-06 11:12 | 52.32734 | 12.96857 | 8782 ft | 236 kts | 256° |
| 2026-05-06 11:13 | 52.32479 | 12.94200 | 8639 ft | 237 kts | 262° |
| 2026-05-06 11:13 | 52.32242 | 12.92462 | 8532 ft | 237 kts | 252° |
| 2026-05-06 11:13 | 52.31642 | 12.89954 | 8398 ft | 236 kts | 248° |
| 2026-05-06 11:13 | 52.31031 | 12.87460 | 8255 ft | 236 kts | 248° |
| 2026-05-06 11:14 | 52.30421 | 12.84973 | 8117 ft | 236 kts | 248° |
| 2026-05-06 11:14 | 52.29811 | 12.82484 | 7974 ft | 236 kts | 248° |
| 2026-05-06 11:14 | 52.28937 | 12.80054 | 7825 ft | 262 kts | 227° |
| 2026-05-06 11:14 | 52.27373 | 12.78469 | 7667 ft | 271 kts | 199° |
| 2026-05-06 11:15 | 52.25515 | 12.78278 | 7509 ft | 276 kts | 171° |
| 2026-05-06 11:15 | 52.23759 | 12.79555 | 7366 ft | 282 kts | 144° |
| 2026-05-06 11:15 | 52.22534 | 12.82054 | 7216 ft | 287 kts | 116° |
| 2026-05-06 11:15 | 52.22070 | 12.85218 | 7060 ft | 289 kts | 97° |
| 2026-05-06 11:16 | 52.21889 | 12.88482 | 6916 ft | 289 kts | 95° |
| 2026-05-06 11:16 | 52.21742 | 12.91748 | 6769 ft | 289 kts | 93° |
| 2026-05-06 11:16 | 52.22024 | 12.94977 | 6483 ft | 291 kts | 72° |
| 2026-05-06 11:16 | 52.22751 | 12.98030 | 6304 ft | 288 kts | 67° |
| 2026-05-06 11:17 | 52.23517 | 13.01043 | 5979 ft | 287 kts | 67° |
| 2026-05-06 11:17 | 52.24254 | 13.04055 | 5598 ft | 285 kts | 68° |
| 2026-05-06 11:17 | 52.24981 | 13.07062 | 5218 ft | 284 kts | 68° |
| 2026-05-06 11:17 | 52.25707 | 13.10061 | 4846 ft | 283 kts | 68° |
| 2026-05-06 11:18 | 52.26429 | 13.13043 | 4470 ft | 282 kts | 68° |
| 2026-05-06 11:18 | 52.27146 | 13.16011 | 4085 ft | 281 kts | 68° |
| 2026-05-06 11:18 | 52.27861 | 13.18974 | 3707 ft | 279 kts | 68° |
| 2026-05-06 11:18 | 52.28553 | 13.21843 | 3338 ft | 270 kts | 68° |
| 2026-05-06 11:19 | 52.29234 | 13.24672 | 2993 ft | 258 kts | 68° |
| 2026-05-06 11:19 | 52.29857 | 13.27262 | 2661 ft | 237 kts | 68° |
| 2026-05-06 11:19 | 52.30432 | 13.29658 | 2355 ft | 217 kts | 68° |
| 2026-05-06 11:19 | 52.30956 | 13.31841 | 2073 ft | 198 kts | 68° |
| 2026-05-06 11:20 | 52.31432 | 13.33828 | 1852 ft | 178 kts | 68° |
| 2026-05-06 11:20 | 52.31868 | 13.35646 | 1618 ft | 168 kts | 68° |
| 2026-05-06 11:20 | 52.32290 | 13.37407 | 1404 ft | 169 kts | 68° |
| 2026-05-06 11:20 | 52.32702 | 13.39110 | 1166 ft | 151 kts | 68° |
| 2026-05-06 11:21 | 52.33058 | 13.40608 | 977 ft | 134 kts | 66° |
| 2026-05-06 11:21 | 52.33380 | 13.41979 | 787 ft | 126 kts | 66° |
| 2026-05-06 11:21 | 52.33693 | 13.43295 | 656 ft | 123 kts | 66° |
| 2026-05-06 11:21 | 52.34010 | 13.44591 | 484 ft | 122 kts | 66° |
| 2026-05-06 11:22 | 52.34308 | 13.45859 | 334 ft | 120 kts | 65° |
| 2026-05-06 11:22 | 52.34610 | 13.47134 | 179 ft | 120 kts | 65° |
| 2026-05-06 11:22 | 52.34875 | 13.48240 | 160 ft | 84 kts | 69° |
| 2026-05-06 11:22 | 52.35041 | 13.48937 | 157 ft | 61 kts | 68° |
| 2026-05-06 11:23 | 52.35200 | 13.49605 | 158 ft | 65 kts | 69° |
| 2026-05-06 11:23 | 52.35345 | 13.50215 | 157 ft | 43 kts | 68° |
| 2026-05-06 11:23 | 52.35450 | 13.50504 | 158 ft | 25 kts | 47° |
| 2026-05-06 11:23 | 52.35553 | 13.50652 | 155 ft | 17 kts | 39° |
| 2026-05-06 11:24 | 52.35662 | 13.50796 | 151 ft | 22 kts | 39° |
| 2026-05-06 11:24 | 52.35798 | 13.50809 | 151 ft | 19 kts | 339° |
| 2026-05-06 11:24 | 52.35932 | 13.50726 | 153 ft | 23 kts | 339° |
| 2026-05-06 11:24 | 52.36055 | 13.50646 | 153 ft | 16 kts | 339° |
| 2026-05-06 11:25 | 52.36168 | 13.50575 | 153 ft | 19 kts | 338° |
| 2026-05-06 11:25 | 52.36254 | 13.50543 | 153 ft | 9 kts | 35° |
| 2026-05-06 11:25 | 52.36280 | 13.50641 | 154 ft | 5 kts | 67° |
| 2026-05-06 11:25 | 52.36283 | 13.50649 | 155 ft | 1 kts | 68° |
| 2026-05-06 11:26 | 52.36283 | 13.50651 | 155 ft | 0 kts | 68° |